sensor_id;sensor_type;location;lat;lon;timestamp;P1;durP1;ratioP1;P2;durP2;ratioP2
75866;SDS011;64513;56.258;43.980;2023-03-12T00:00:44;7.78;;;3.10;;
75866;SDS011;64513;56.258;43.980;2023-03-12T00:03:09;12.20;;;3.20;;
75866;SDS011;64513;56.258;43.980;2023-03-12T00:05:35;7.70;;;3.03;;
75866;SDS011;64513;56.258;43.980;2023-03-12T00:08:00;9.03;;;3.20;;
75866;SDS011;64513;56.258;43.980;2023-03-12T00:10:24;9.05;;;3.15;;
75866;SDS011;64513;56.258;43.980;2023-03-12T00:12:50;8.38;;;2.90;;
75866;SDS011;64513;56.258;43.980;2023-03-12T00:15:15;8.00;;;3.37;;
75866;SDS011;64513;56.258;43.980;2023-03-12T00:17:39;9.30;;;3.37;;
75866;SDS011;64513;56.258;43.980;2023-03-12T00:20:03;9.35;;;3.27;;
75866;SDS011;64513;56.258;43.980;2023-03-12T00:22:28;7.65;;;3.00;;
75866;SDS011;64513;56.258;43.980;2023-03-12T00:24:52;8.78;;;3.60;;
75866;SDS011;64513;56.258;43.980;2023-03-12T00:27:17;8.75;;;3.08;;
75866;SDS011;64513;56.258;43.980;2023-03-12T00:29:42;8.87;;;3.60;;
75866;SDS011;64513;56.258;43.980;2023-03-12T00:32:06;6.17;;;2.33;;
75866;SDS011;64513;56.258;43.980;2023-03-12T00:34:32;10.65;;;3.55;;
75866;SDS011;64513;56.258;43.980;2023-03-12T00:36:57;10.82;;;3.83;;
75866;SDS011;64513;56.258;43.980;2023-03-12T00:39:21;8.75;;;3.55;;
75866;SDS011;64513;56.258;43.980;2023-03-12T00:41:45;9.50;;;3.63;;
75866;SDS011;64513;56.258;43.980;2023-03-12T00:44:09;8.70;;;3.60;;
75866;SDS011;64513;56.258;43.980;2023-03-12T00:46:33;9.15;;;3.80;;
75866;SDS011;64513;56.258;43.980;2023-03-12T00:48:57;8.73;;;3.30;;
75866;SDS011;64513;56.258;43.980;2023-03-12T00:51:21;9.43;;;3.37;;
75866;SDS011;64513;56.258;43.980;2023-03-12T00:53:46;8.73;;;3.50;;
75866;SDS011;64513;56.258;43.980;2023-03-12T00:56:10;10.70;;;4.00;;
75866;SDS011;64513;56.258;43.980;2023-03-12T00:58:35;9.53;;;3.72;;
75866;SDS011;64513;56.258;43.980;2023-03-12T01:00:59;9.65;;;4.20;;
75866;SDS011;64513;56.258;43.980;2023-03-12T01:03:23;9.05;;;3.70;;
75866;SDS011;64513;56.258;43.980;2023-03-12T01:05:47;8.97;;;3.80;;
75866;SDS011;64513;56.258;43.980;2023-03-12T01:08:31;9.65;;;3.90;;
75866;SDS011;64513;56.258;43.980;2023-03-12T01:10:56;8.63;;;3.62;;
75866;SDS011;64513;56.258;43.980;2023-03-12T01:13:20;8.75;;;3.87;;
75866;SDS011;64513;56.258;43.980;2023-03-12T01:15:44;10.30;;;4.20;;
75866;SDS011;64513;56.258;43.980;2023-03-12T01:18:08;13.70;;;4.77;;
75866;SDS011;64513;56.258;43.980;2023-03-12T01:20:33;11.25;;;4.15;;
75866;SDS011;64513;56.258;43.980;2023-03-12T01:22:58;11.63;;;4.08;;
75866;SDS011;64513;56.258;43.980;2023-03-12T01:25:22;10.78;;;4.53;;
75866;SDS011;64513;56.258;43.980;2023-03-12T01:27:46;11.70;;;4.50;;
75866;SDS011;64513;56.258;43.980;2023-03-12T01:30:11;10.50;;;4.40;;
75866;SDS011;64513;56.258;43.980;2023-03-12T01:32:35;10.35;;;4.30;;
75866;SDS011;64513;56.258;43.980;2023-03-12T01:35:00;10.08;;;4.55;;
75866;SDS011;64513;56.258;43.980;2023-03-12T01:37:26;11.25;;;4.40;;
75866;SDS011;64513;56.258;43.980;2023-03-12T01:39:50;13.62;;;4.55;;
75866;SDS011;64513;56.258;43.980;2023-03-12T01:42:14;12.77;;;4.83;;
75866;SDS011;64513;56.258;43.980;2023-03-12T01:47:25;10.82;;;4.72;;
75866;SDS011;64513;56.258;43.980;2023-03-12T01:50:11;13.43;;;5.10;;
75866;SDS011;64513;56.258;43.980;2023-03-12T01:52:37;12.05;;;4.60;;
75866;SDS011;64513;56.258;43.980;2023-03-12T01:55:04;10.97;;;4.80;;
75866;SDS011;64513;56.258;43.980;2023-03-12T01:57:48;12.00;;;5.08;;
75866;SDS011;64513;56.258;43.980;2023-03-12T02:00:15;12.18;;;5.10;;
75866;SDS011;64513;56.258;43.980;2023-03-12T02:02:42;12.45;;;5.08;;
75866;SDS011;64513;56.258;43.980;2023-03-12T02:08:11;15.83;;;5.40;;
75866;SDS011;64513;56.258;43.980;2023-03-12T02:10:37;13.62;;;5.08;;
75866;SDS011;64513;56.258;43.980;2023-03-12T02:13:02;13.00;;;5.55;;
75866;SDS011;64513;56.258;43.980;2023-03-12T02:15:26;13.28;;;5.28;;
75866;SDS011;64513;56.258;43.980;2023-03-12T02:17:51;13.90;;;6.05;;
75866;SDS011;64513;56.258;43.980;2023-03-12T02:26:05;15.00;;;5.85;;
75866;SDS011;64513;56.258;43.980;2023-03-12T02:28:30;15.48;;;6.42;;
75866;SDS011;64513;56.258;43.980;2023-03-12T02:30:59;15.15;;;6.05;;
75866;SDS011;64513;56.258;43.980;2023-03-12T02:33:26;13.63;;;5.23;;
75866;SDS011;64513;56.258;43.980;2023-03-12T02:35:51;19.87;;;5.95;;
75866;SDS011;64513;56.258;43.980;2023-03-12T02:43:49;15.53;;;6.25;;
75866;SDS011;64513;56.258;43.980;2023-03-12T02:49:19;13.75;;;5.75;;
75866;SDS011;64513;56.258;43.980;2023-03-12T02:51:44;14.43;;;6.70;;
75866;SDS011;64513;56.258;43.980;2023-03-12T02:54:09;15.32;;;6.03;;
75866;SDS011;64513;56.258;43.980;2023-03-12T02:56:35;14.18;;;6.20;;
75866;SDS011;64513;56.258;43.980;2023-03-12T02:59:01;14.80;;;6.47;;
75866;SDS011;64513;56.258;43.980;2023-03-12T03:01:26;15.53;;;5.80;;
75866;SDS011;64513;56.258;43.980;2023-03-12T03:03:52;16.80;;;6.87;;
75866;SDS011;64513;56.258;43.980;2023-03-12T03:06:17;16.07;;;6.25;;
75866;SDS011;64513;56.258;43.980;2023-03-12T03:08:41;14.80;;;6.15;;
75866;SDS011;64513;56.258;43.980;2023-03-12T03:11:05;15.60;;;5.97;;
75866;SDS011;64513;56.258;43.980;2023-03-12T03:13:30;15.00;;;6.22;;
75866;SDS011;64513;56.258;43.980;2023-03-12T03:15:55;13.88;;;5.95;;
75866;SDS011;64513;56.258;43.980;2023-03-12T03:18:21;14.90;;;5.90;;
75866;SDS011;64513;56.258;43.980;2023-03-12T03:20:53;13.28;;;6.15;;
75866;SDS011;64513;56.258;43.980;2023-03-12T03:23:33;12.63;;;6.00;;
75866;SDS011;64513;56.258;43.980;2023-03-12T03:25:58;15.23;;;6.40;;
75866;SDS011;64513;56.258;43.980;2023-03-12T03:28:23;17.87;;;6.42;;
75866;SDS011;64513;56.258;43.980;2023-03-12T03:30:51;19.30;;;6.53;;
75866;SDS011;64513;56.258;43.980;2023-03-12T03:33:17;15.80;;;6.25;;
75866;SDS011;64513;56.258;43.980;2023-03-12T03:35:41;13.87;;;6.33;;
75866;SDS011;64513;56.258;43.980;2023-03-12T03:38:05;16.57;;;6.40;;
75866;SDS011;64513;56.258;43.980;2023-03-12T03:40:29;13.68;;;5.47;;
75866;SDS011;64513;56.258;43.980;2023-03-12T03:42:54;14.65;;;5.87;;
75866;SDS011;64513;56.258;43.980;2023-03-12T03:45:18;11.73;;;5.70;;
75866;SDS011;64513;56.258;43.980;2023-03-12T03:47:42;16.07;;;6.50;;
75866;SDS011;64513;56.258;43.980;2023-03-12T03:50:07;13.32;;;5.90;;
75866;SDS011;64513;56.258;43.980;2023-03-12T03:52:32;15.28;;;6.45;;
75866;SDS011;64513;56.258;43.980;2023-03-12T03:54:56;15.38;;;6.45;;
75866;SDS011;64513;56.258;43.980;2023-03-12T03:57:20;16.70;;;6.85;;
75866;SDS011;64513;56.258;43.980;2023-03-12T03:59:44;14.40;;;6.40;;
75866;SDS011;64513;56.258;43.980;2023-03-12T04:02:08;16.52;;;6.78;;
75866;SDS011;64513;56.258;43.980;2023-03-12T04:04:33;15.83;;;6.55;;
75866;SDS011;64513;56.258;43.980;2023-03-12T04:06:57;15.68;;;6.70;;
75866;SDS011;64513;56.258;43.980;2023-03-12T04:09:21;18.37;;;7.15;;
75866;SDS011;64513;56.258;43.980;2023-03-12T04:11:45;15.07;;;6.77;;
75866;SDS011;64513;56.258;43.980;2023-03-12T04:14:09;17.07;;;7.47;;
75866;SDS011;64513;56.258;43.980;2023-03-12T04:16:34;17.02;;;7.22;;
75866;SDS011;64513;56.258;43.980;2023-03-12T04:18:58;18.27;;;7.05;;
75866;SDS011;64513;56.258;43.980;2023-03-12T04:21:22;14.73;;;6.55;;
75866;SDS011;64513;56.258;43.980;2023-03-12T04:23:46;16.73;;;7.27;;
75866;SDS011;64513;56.258;43.980;2023-03-12T04:26:10;18.25;;;7.00;;
75866;SDS011;64513;56.258;43.980;2023-03-12T04:28:35;17.67;;;7.40;;
75866;SDS011;64513;56.258;43.980;2023-03-12T04:31:01;16.77;;;7.22;;
75866;SDS011;64513;56.258;43.980;2023-03-12T04:33:27;16.30;;;7.40;;
75866;SDS011;64513;56.258;43.980;2023-03-12T04:35:53;19.60;;;7.10;;
75866;SDS011;64513;56.258;43.980;2023-03-12T04:38:19;17.02;;;7.42;;
75866;SDS011;64513;56.258;43.980;2023-03-12T04:40:44;16.23;;;7.28;;
75866;SDS011;64513;56.258;43.980;2023-03-12T04:43:08;17.48;;;7.00;;
75866;SDS011;64513;56.258;43.980;2023-03-12T04:45:32;19.57;;;6.83;;
75866;SDS011;64513;56.258;43.980;2023-03-12T04:47:56;17.60;;;7.03;;
75866;SDS011;64513;56.258;43.980;2023-03-12T04:50:21;17.92;;;7.28;;
75866;SDS011;64513;56.258;43.980;2023-03-12T04:52:45;19.50;;;7.72;;
75866;SDS011;64513;56.258;43.980;2023-03-12T04:55:09;19.80;;;7.10;;
75866;SDS011;64513;56.258;43.980;2023-03-12T04:57:34;17.52;;;7.55;;
75866;SDS011;64513;56.258;43.980;2023-03-12T04:59:58;15.57;;;6.90;;
75866;SDS011;64513;56.258;43.980;2023-03-12T05:02:22;16.75;;;6.60;;
75866;SDS011;64513;56.258;43.980;2023-03-12T05:04:46;15.93;;;6.92;;
75866;SDS011;64513;56.258;43.980;2023-03-12T05:07:10;17.55;;;6.75;;
75866;SDS011;64513;56.258;43.980;2023-03-12T05:09:34;15.43;;;6.70;;
75866;SDS011;64513;56.258;43.980;2023-03-12T05:11:59;16.20;;;6.50;;
75866;SDS011;64513;56.258;43.980;2023-03-12T05:14:23;15.28;;;6.75;;
75866;SDS011;64513;56.258;43.980;2023-03-12T05:16:47;16.45;;;6.50;;
75866;SDS011;64513;56.258;43.980;2023-03-12T05:19:12;14.83;;;6.83;;
75866;SDS011;64513;56.258;43.980;2023-03-12T05:21:38;15.55;;;6.55;;
75866;SDS011;64513;56.258;43.980;2023-03-12T05:24:03;14.93;;;6.57;;
75866;SDS011;64513;56.258;43.980;2023-03-12T05:29:11;13.60;;;5.92;;
75866;SDS011;64513;56.258;43.980;2023-03-12T05:31:36;14.78;;;6.03;;
75866;SDS011;64513;56.258;43.980;2023-03-12T05:34:01;14.58;;;6.22;;
75866;SDS011;64513;56.258;43.980;2023-03-12T05:36:26;16.77;;;6.13;;
75866;SDS011;64513;56.258;43.980;2023-03-12T05:38:50;13.13;;;5.60;;
75866;SDS011;64513;56.258;43.980;2023-03-12T05:43:58;15.28;;;6.28;;
75866;SDS011;64513;56.258;43.980;2023-03-12T05:46:23;12.93;;;5.70;;
75866;SDS011;64513;56.258;43.980;2023-03-12T05:48:49;17.60;;;6.17;;
75866;SDS011;64513;56.258;43.980;2023-03-12T05:51:13;13.88;;;5.60;;
75866;SDS011;64513;56.258;43.980;2023-03-12T05:53:37;14.05;;;6.03;;
75866;SDS011;64513;56.258;43.980;2023-03-12T05:58:46;12.82;;;5.50;;
75866;SDS011;64513;56.258;43.980;2023-03-12T06:01:12;14.00;;;5.57;;
75866;SDS011;64513;56.258;43.980;2023-03-12T06:03:38;13.95;;;5.40;;
75866;SDS011;64513;56.258;43.980;2023-03-12T06:06:02;13.40;;;5.47;;
75866;SDS011;64513;56.258;43.980;2023-03-12T06:08:27;13.58;;;5.95;;
75866;SDS011;64513;56.258;43.980;2023-03-12T06:10:51;14.70;;;6.20;;
75866;SDS011;64513;56.258;43.980;2023-03-12T06:13:15;12.93;;;5.90;;
75866;SDS011;64513;56.258;43.980;2023-03-12T06:15:39;12.88;;;5.83;;
75866;SDS011;64513;56.258;43.980;2023-03-12T06:18:04;14.70;;;5.70;;
75866;SDS011;64513;56.258;43.980;2023-03-12T06:20:28;13.93;;;6.15;;
75866;SDS011;64513;56.258;43.980;2023-03-12T06:22:52;14.03;;;5.50;;
75866;SDS011;64513;56.258;43.980;2023-03-12T06:25:16;12.20;;;5.10;;
75866;SDS011;64513;56.258;43.980;2023-03-12T06:27:40;12.70;;;5.35;;
75866;SDS011;64513;56.258;43.980;2023-03-12T06:30:05;12.70;;;5.37;;
75866;SDS011;64513;56.258;43.980;2023-03-12T06:32:30;13.18;;;5.72;;
75866;SDS011;64513;56.258;43.980;2023-03-12T06:34:54;13.58;;;5.65;;
75866;SDS011;64513;56.258;43.980;2023-03-12T06:37:20;12.57;;;5.60;;
75866;SDS011;64513;56.258;43.980;2023-03-12T06:39:44;15.08;;;5.85;;
75866;SDS011;64513;56.258;43.980;2023-03-12T06:42:08;14.30;;;5.70;;
75866;SDS011;64513;56.258;43.980;2023-03-12T06:44:34;12.53;;;5.10;;
75866;SDS011;64513;56.258;43.980;2023-03-12T06:46:58;11.78;;;4.97;;
75866;SDS011;64513;56.258;43.980;2023-03-12T06:49:22;14.47;;;5.73;;
75866;SDS011;64513;56.258;43.980;2023-03-12T06:51:48;14.47;;;5.53;;
75866;SDS011;64513;56.258;43.980;2023-03-12T06:54:13;14.10;;;6.03;;
75866;SDS011;64513;56.258;43.980;2023-03-12T06:56:37;12.73;;;5.65;;
75866;SDS011;64513;56.258;43.980;2023-03-12T06:59:01;14.18;;;6.45;;
75866;SDS011;64513;56.258;43.980;2023-03-12T07:01:25;15.20;;;6.10;;
75866;SDS011;64513;56.258;43.980;2023-03-12T07:03:49;15.35;;;6.03;;
75866;SDS011;64513;56.258;43.980;2023-03-12T07:08:41;13.30;;;6.00;;
75866;SDS011;64513;56.258;43.980;2023-03-12T07:11:06;15.65;;;6.15;;
75866;SDS011;64513;56.258;43.980;2023-03-12T07:13:30;12.13;;;5.77;;
75866;SDS011;64513;56.258;43.980;2023-03-12T07:15:54;13.10;;;5.70;;
75866;SDS011;64513;56.258;43.980;2023-03-12T07:18:18;11.38;;;5.80;;
75866;SDS011;64513;56.258;43.980;2023-03-12T07:20:42;12.30;;;5.70;;
75866;SDS011;64513;56.258;43.980;2023-03-12T07:23:07;14.10;;;6.20;;
75866;SDS011;64513;56.258;43.980;2023-03-12T07:28:17;12.23;;;5.40;;
75866;SDS011;64513;56.258;43.980;2023-03-12T07:30:42;11.18;;;4.70;;
75866;SDS011;64513;56.258;43.980;2023-03-12T07:33:27;11.95;;;5.20;;
75866;SDS011;64513;56.258;43.980;2023-03-12T07:35:51;9.65;;;4.17;;
75866;SDS011;64513;56.258;43.980;2023-03-12T07:38:15;11.13;;;4.70;;
75866;SDS011;64513;56.258;43.980;2023-03-12T07:40:40;9.15;;;4.40;;
75866;SDS011;64513;56.258;43.980;2023-03-12T07:43:04;9.40;;;4.42;;
75866;SDS011;64513;56.258;43.980;2023-03-12T07:45:30;13.15;;;5.55;;
75866;SDS011;64513;56.258;43.980;2023-03-12T07:47:54;11.55;;;4.83;;
75866;SDS011;64513;56.258;43.980;2023-03-12T07:50:18;12.10;;;5.17;;
75866;SDS011;64513;56.258;43.980;2023-03-12T07:52:43;9.83;;;4.83;;
75866;SDS011;64513;56.258;43.980;2023-03-12T07:55:08;11.20;;;4.85;;
75866;SDS011;64513;56.258;43.980;2023-03-12T07:57:34;10.88;;;4.95;;
75866;SDS011;64513;56.258;43.980;2023-03-12T07:59:58;13.25;;;5.40;;
75866;SDS011;64513;56.258;43.980;2023-03-12T08:02:25;10.33;;;4.57;;
75866;SDS011;64513;56.258;43.980;2023-03-12T08:04:49;9.85;;;4.80;;
75866;SDS011;64513;56.258;43.980;2023-03-12T08:07:13;12.65;;;5.12;;
75866;SDS011;64513;56.258;43.980;2023-03-12T08:09:38;11.65;;;5.15;;
75866;SDS011;64513;56.258;43.980;2023-03-12T08:12:02;11.50;;;4.85;;
75866;SDS011;64513;56.258;43.980;2023-03-12T08:14:28;11.03;;;4.80;;
75866;SDS011;64513;56.258;43.980;2023-03-12T08:16:52;11.60;;;5.17;;
75866;SDS011;64513;56.258;43.980;2023-03-12T08:19:16;10.93;;;5.35;;
75866;SDS011;64513;56.258;43.980;2023-03-12T08:21:41;11.33;;;5.22;;
75866;SDS011;64513;56.258;43.980;2023-03-12T08:24:05;11.18;;;5.35;;
75866;SDS011;64513;56.258;43.980;2023-03-12T08:26:29;13.13;;;5.17;;
75866;SDS011;64513;56.258;43.980;2023-03-12T08:28:53;13.22;;;5.25;;
75866;SDS011;64513;56.258;43.980;2023-03-12T08:31:59;11.68;;;5.58;;
75866;SDS011;64513;56.258;43.980;2023-03-12T08:34:43;12.70;;;6.35;;
75866;SDS011;64513;56.258;43.980;2023-03-12T08:37:07;12.53;;;5.55;;
75866;SDS011;64513;56.258;43.980;2023-03-12T08:39:32;12.33;;;5.90;;
75866;SDS011;64513;56.258;43.980;2023-03-12T08:44:40;13.93;;;6.87;;
75866;SDS011;64513;56.258;43.980;2023-03-12T08:47:04;12.05;;;6.00;;
75866;SDS011;64513;56.258;43.980;2023-03-12T08:49:29;11.48;;;5.87;;
75866;SDS011;64513;56.258;43.980;2023-03-12T08:51:53;14.80;;;6.60;;
75866;SDS011;64513;56.258;43.980;2023-03-12T08:54:18;11.75;;;6.12;;
75866;SDS011;64513;56.258;43.980;2023-03-12T08:56:42;13.65;;;6.15;;
75866;SDS011;64513;56.258;43.980;2023-03-12T08:59:07;12.58;;;6.00;;
75866;SDS011;64513;56.258;43.980;2023-03-12T09:01:33;13.38;;;6.67;;
75866;SDS011;64513;56.258;43.980;2023-03-12T09:03:57;14.03;;;6.43;;
75866;SDS011;64513;56.258;43.980;2023-03-12T09:06:22;15.23;;;6.85;;
75866;SDS011;64513;56.258;43.980;2023-03-12T09:08:46;15.13;;;6.72;;
75866;SDS011;64513;56.258;43.980;2023-03-12T09:11:11;14.05;;;6.83;;
75866;SDS011;64513;56.258;43.980;2023-03-12T09:13:37;14.13;;;6.67;;
75866;SDS011;64513;56.258;43.980;2023-03-12T09:16:02;14.53;;;7.03;;
75866;SDS011;64513;56.258;43.980;2023-03-12T09:18:27;12.98;;;6.83;;
75866;SDS011;64513;56.258;43.980;2023-03-12T09:20:52;13.18;;;6.55;;
75866;SDS011;64513;56.258;43.980;2023-03-12T09:23:16;14.25;;;6.30;;
75866;SDS011;64513;56.258;43.980;2023-03-12T09:25:43;12.93;;;6.90;;
75866;SDS011;64513;56.258;43.980;2023-03-12T09:28:25;13.60;;;6.30;;
75866;SDS011;64513;56.258;43.980;2023-03-12T09:30:50;13.13;;;6.45;;
75866;SDS011;64513;56.258;43.980;2023-03-12T09:33:14;13.95;;;6.90;;
75866;SDS011;64513;56.258;43.980;2023-03-12T09:35:38;14.38;;;7.12;;
75866;SDS011;64513;56.258;43.980;2023-03-12T09:38:03;12.80;;;6.78;;
75866;SDS011;64513;56.258;43.980;2023-03-12T09:40:28;16.33;;;7.40;;
75866;SDS011;64513;56.258;43.980;2023-03-12T09:45:24;13.68;;;6.53;;
75866;SDS011;64513;56.258;43.980;2023-03-12T09:47:51;14.33;;;6.92;;
75866;SDS011;64513;56.258;43.980;2023-03-12T09:56:10;14.35;;;6.20;;
75866;SDS011;64513;56.258;43.980;2023-03-12T09:58:35;17.23;;;7.00;;
75866;SDS011;64513;56.258;43.980;2023-03-12T10:09:41;13.35;;;6.92;;
75866;SDS011;64513;56.258;43.980;2023-03-12T10:23:48;13.13;;;6.10;;
75866;SDS011;64513;56.258;43.980;2023-03-12T10:26:13;12.07;;;5.83;;
75866;SDS011;64513;56.258;43.980;2023-03-12T10:28:58;11.65;;;5.87;;
75866;SDS011;64513;56.258;43.980;2023-03-12T10:34:29;11.00;;;5.27;;
75866;SDS011;64513;56.258;43.980;2023-03-12T10:40:00;12.23;;;5.60;;
75866;SDS011;64513;56.258;43.980;2023-03-12T10:42:26;10.80;;;4.95;;
75866;SDS011;64513;56.258;43.980;2023-03-12T10:50:23;11.68;;;4.87;;
75866;SDS011;64513;56.258;43.980;2023-03-12T10:52:50;12.60;;;5.40;;
75866;SDS011;64513;56.258;43.980;2023-03-12T10:58:01;9.15;;;4.00;;
75866;SDS011;64513;56.258;43.980;2023-03-12T11:00:26;9.50;;;3.77;;
75866;SDS011;64513;56.258;43.980;2023-03-12T11:09:32;7.05;;;3.60;;
75866;SDS011;64513;56.258;43.980;2023-03-12T11:11:46;8.65;;;3.90;;
75866;SDS011;64513;56.258;43.980;2023-03-12T11:16:58;8.95;;;3.52;;
75866;SDS011;64513;56.258;43.980;2023-03-12T11:21:54;8.08;;;3.92;;
75866;SDS011;64513;56.258;43.980;2023-03-12T11:24:20;9.50;;;4.20;;
75866;SDS011;64513;56.258;43.980;2023-03-12T11:29:31;9.70;;;4.12;;
75866;SDS011;64513;56.258;43.980;2023-03-12T11:35:08;10.65;;;4.40;;
75866;SDS011;64513;56.258;43.980;2023-03-12T11:52:36;8.28;;;3.52;;
75866;SDS011;64513;56.258;43.980;2023-03-12T12:34:22;9.60;;;4.50;;
75866;SDS011;64513;56.258;43.980;2023-03-12T12:36:45;10.80;;;4.37;;
75866;SDS011;64513;56.258;43.980;2023-03-12T12:42:17;11.28;;;4.95;;
75866;SDS011;64513;56.258;43.980;2023-03-12T12:44:45;11.30;;;4.90;;
75866;SDS011;64513;56.258;43.980;2023-03-12T12:47:12;12.85;;;4.50;;
75866;SDS011;64513;56.258;43.980;2023-03-12T12:52:24;10.60;;;4.93;;
75866;SDS011;64513;56.258;43.980;2023-03-12T12:55:27;10.32;;;5.00;;
75866;SDS011;64513;56.258;43.980;2023-03-12T13:01:14;9.63;;;4.95;;
75866;SDS011;64513;56.258;43.980;2023-03-12T13:03:28;11.15;;;5.22;;
75866;SDS011;64513;56.258;43.980;2023-03-12T13:16:37;10.45;;;4.97;;
75866;SDS011;64513;56.258;43.980;2023-03-12T13:22:23;13.93;;;6.30;;
75866;SDS011;64513;56.258;43.980;2023-03-12T13:27:39;14.25;;;6.12;;
75866;SDS011;64513;56.258;43.980;2023-03-12T13:35:38;12.82;;;6.72;;
75866;SDS011;64513;56.258;43.980;2023-03-12T13:48:50;14.50;;;7.15;;
75866;SDS011;64513;56.258;43.980;2023-03-12T13:54:22;15.78;;;7.03;;
75866;SDS011;64513;56.258;43.980;2023-03-12T13:59:52;19.70;;;7.30;;
75866;SDS011;64513;56.258;43.980;2023-03-12T14:05:04;15.25;;;7.17;;
75866;SDS011;64513;56.258;43.980;2023-03-12T14:07:34;15.70;;;7.40;;
75866;SDS011;64513;56.258;43.980;2023-03-12T14:21:39;14.68;;;6.70;;
75866;SDS011;64513;56.258;43.980;2023-03-12T14:24:06;13.22;;;6.90;;
75866;SDS011;64513;56.258;43.980;2023-03-12T14:26:33;15.00;;;6.90;;
75866;SDS011;64513;56.258;43.980;2023-03-12T14:31:44;16.62;;;7.28;;
75866;SDS011;64513;56.258;43.980;2023-03-12T14:39:43;16.67;;;7.37;;
75866;SDS011;64513;56.258;43.980;2023-03-12T14:45:45;15.93;;;7.30;;
75866;SDS011;64513;56.258;43.980;2023-03-12T14:47:59;15.78;;;7.03;;
75866;SDS011;64513;56.258;43.980;2023-03-12T14:50:26;15.68;;;7.33;;
75866;SDS011;64513;56.258;43.980;2023-03-12T14:52:52;17.03;;;7.47;;
75866;SDS011;64513;56.258;43.980;2023-03-12T14:55:20;17.87;;;7.15;;
75866;SDS011;64513;56.258;43.980;2023-03-12T14:57:45;19.25;;;7.70;;
75866;SDS011;64513;56.258;43.980;2023-03-12T15:00:20;16.15;;;7.40;;
75866;SDS011;64513;56.258;43.980;2023-03-12T15:02:55;16.42;;;7.60;;
75866;SDS011;64513;56.258;43.980;2023-03-12T15:05:22;15.80;;;7.23;;
75866;SDS011;64513;56.258;43.980;2023-03-12T15:07:47;17.82;;;6.62;;
75866;SDS011;64513;56.258;43.980;2023-03-12T15:12:58;13.80;;;6.70;;
75866;SDS011;64513;56.258;43.980;2023-03-12T15:18:28;13.43;;;6.20;;
75866;SDS011;64513;56.258;43.980;2023-03-12T15:20:55;13.13;;;6.25;;
75866;SDS011;64513;56.258;43.980;2023-03-12T15:23:20;16.25;;;7.40;;
75866;SDS011;64513;56.258;43.980;2023-03-12T15:25:46;16.45;;;6.85;;
75866;SDS011;64513;56.258;43.980;2023-03-12T15:33:41;14.25;;;6.03;;
75866;SDS011;64513;56.258;43.980;2023-03-12T15:41:59;15.88;;;6.75;;
75866;SDS011;64513;56.258;43.980;2023-03-12T15:47:10;12.07;;;5.62;;
75866;SDS011;64513;56.258;43.980;2023-03-12T15:49:37;12.55;;;5.65;;
75866;SDS011;64513;56.258;43.980;2023-03-12T15:57:43;12.37;;;5.97;;
75866;SDS011;64513;56.258;43.980;2023-03-12T16:03:05;12.10;;;5.47;;
75866;SDS011;64513;56.258;43.980;2023-03-12T16:05:50;11.40;;;5.00;;
75866;SDS011;64513;56.258;43.980;2023-03-12T16:08:16;13.08;;;5.97;;
75866;SDS011;64513;56.258;43.980;2023-03-12T16:11:00;9.20;;;4.60;;
75866;SDS011;64513;56.258;43.980;2023-03-12T16:13:26;11.53;;;5.65;;
75866;SDS011;64513;56.258;43.980;2023-03-12T16:15:52;10.18;;;4.92;;
75866;SDS011;64513;56.258;43.980;2023-03-12T16:18:18;10.13;;;4.80;;
75866;SDS011;64513;56.258;43.980;2023-03-12T16:20:43;10.93;;;4.33;;
75866;SDS011;64513;56.258;43.980;2023-03-12T16:23:08;11.57;;;4.53;;
75866;SDS011;64513;56.258;43.980;2023-03-12T16:25:33;11.03;;;4.90;;
75866;SDS011;64513;56.258;43.980;2023-03-12T16:28:00;9.70;;;4.55;;
75866;SDS011;64513;56.258;43.980;2023-03-12T16:30:27;8.53;;;4.00;;
75866;SDS011;64513;56.258;43.980;2023-03-12T16:32:54;9.18;;;4.15;;
75866;SDS011;64513;56.258;43.980;2023-03-12T16:35:19;9.67;;;4.30;;
75866;SDS011;64513;56.258;43.980;2023-03-12T16:37:43;9.00;;;4.00;;
75866;SDS011;64513;56.258;43.980;2023-03-12T16:40:09;9.70;;;4.62;;
75866;SDS011;64513;56.258;43.980;2023-03-12T16:42:34;9.95;;;4.28;;
75866;SDS011;64513;56.258;43.980;2023-03-12T16:44:59;10.72;;;4.03;;
75866;SDS011;64513;56.258;43.980;2023-03-12T16:47:25;10.77;;;4.00;;
75866;SDS011;64513;56.258;43.980;2023-03-12T16:49:50;8.65;;;4.37;;
75866;SDS011;64513;56.258;43.980;2023-03-12T16:52:48;9.70;;;4.65;;
75866;SDS011;64513;56.258;43.980;2023-03-12T16:55:00;8.95;;;3.90;;
75866;SDS011;64513;56.258;43.980;2023-03-12T17:00:29;9.60;;;4.10;;
75866;SDS011;64513;56.258;43.980;2023-03-12T17:02:56;8.78;;;4.30;;
75866;SDS011;64513;56.258;43.980;2023-03-12T17:05:22;9.15;;;4.47;;
75866;SDS011;64513;56.258;43.980;2023-03-12T17:07:47;10.32;;;4.58;;
75866;SDS011;64513;56.258;43.980;2023-03-12T17:10:13;9.50;;;4.35;;
75866;SDS011;64513;56.258;43.980;2023-03-12T17:12:38;11.20;;;5.00;;
75866;SDS011;64513;56.258;43.980;2023-03-12T17:15:04;10.20;;;4.65;;
75866;SDS011;64513;56.258;43.980;2023-03-12T17:17:50;9.85;;;4.70;;
75866;SDS011;64513;56.258;43.980;2023-03-12T17:20:34;10.03;;;4.20;;
75866;SDS011;64513;56.258;43.980;2023-03-12T17:22:58;10.48;;;4.80;;
75866;SDS011;64513;56.258;43.980;2023-03-12T17:25:24;9.40;;;4.70;;
75866;SDS011;64513;56.258;43.980;2023-03-12T17:27:50;9.43;;;4.42;;
75866;SDS011;64513;56.258;43.980;2023-03-12T17:30:16;9.75;;;4.62;;
75866;SDS011;64513;56.258;43.980;2023-03-12T17:32:41;8.88;;;4.30;;
75866;SDS011;64513;56.258;43.980;2023-03-12T17:35:05;9.80;;;4.75;;
75866;SDS011;64513;56.258;43.980;2023-03-12T17:37:30;9.80;;;4.93;;
75866;SDS011;64513;56.258;43.980;2023-03-12T17:39:55;9.03;;;4.28;;
75866;SDS011;64513;56.258;43.980;2023-03-12T17:42:21;11.50;;;5.00;;
75866;SDS011;64513;56.258;43.980;2023-03-12T17:44:45;10.70;;;4.65;;
75866;SDS011;64513;56.258;43.980;2023-03-12T17:47:09;9.03;;;4.37;;
75866;SDS011;64513;56.258;43.980;2023-03-12T17:49:34;8.57;;;4.20;;
75866;SDS011;64513;56.258;43.980;2023-03-12T17:52:00;9.25;;;4.40;;
75866;SDS011;64513;56.258;43.980;2023-03-12T17:54:25;10.85;;;4.42;;
75866;SDS011;64513;56.258;43.980;2023-03-12T17:56:49;10.95;;;4.65;;
75866;SDS011;64513;56.258;43.980;2023-03-12T17:59:13;9.05;;;4.35;;
75866;SDS011;64513;56.258;43.980;2023-03-12T18:01:38;12.83;;;5.03;;
75866;SDS011;64513;56.258;43.980;2023-03-12T18:04:02;10.65;;;4.35;;
75866;SDS011;64513;56.258;43.980;2023-03-12T18:06:26;10.05;;;4.55;;
75866;SDS011;64513;56.258;43.980;2023-03-12T18:08:50;9.23;;;4.35;;
75866;SDS011;64513;56.258;43.980;2023-03-12T18:11:14;10.32;;;4.37;;
75866;SDS011;64513;56.258;43.980;2023-03-12T18:13:38;9.83;;;4.17;;
75866;SDS011;64513;56.258;43.980;2023-03-12T18:16:02;10.68;;;4.17;;
75866;SDS011;64513;56.258;43.980;2023-03-12T18:18:27;10.68;;;3.87;;
75866;SDS011;64513;56.258;43.980;2023-03-12T18:20:51;9.23;;;3.55;;
75866;SDS011;64513;56.258;43.980;2023-03-12T18:23:16;6.75;;;3.25;;
75866;SDS011;64513;56.258;43.980;2023-03-12T18:25:41;8.47;;;3.80;;
75866;SDS011;64513;56.258;43.980;2023-03-12T18:28:06;7.22;;;2.95;;
75866;SDS011;64513;56.258;43.980;2023-03-12T18:30:30;6.97;;;3.45;;
75866;SDS011;64513;56.258;43.980;2023-03-12T18:32:54;8.73;;;3.33;;